<?xml version='1.0' encoding='UTF-8'?>
<gpx xmlns="http://www.topografix.com/GPX/1/1" creator="www.balnam.be" version="1.1" xmlns:xsi="http://www.w3.org/2001/XMLSchema-instance" xsi:schemaLocation="http://www.topografix.com/GPX/1/1 http://www.topografix.com/GPX/1/1/gpx.xsd">
<trk>
<name>xaogg26</name>
<cmt>q</cmt>
<desc>Guirsch Sentier n°26 Rue de la Rausch</desc>
<link href="https://chemins.be/guirsch/sentier/26"/><trkseg>
<trkpt lat="49.723926" lon="5.850102"><time>2026-05-03T08:07:10Z</time></trkpt>
<trkpt lat="49.722584" lon="5.851142"><time>2026-05-03T08:17:10Z</time></trkpt>
<trkpt lat="49.721713" lon="5.853031"><time>2026-05-03T08:27:10Z</time></trkpt>
<trkpt lat="49.721606" lon="5.853916"><time>2026-05-03T08:37:10Z</time></trkpt>
<trkpt lat="49.721505" lon="5.853996"><time>2026-05-03T08:47:10Z</time></trkpt>
</trkseg></trk>
<trk>
<name>xaogg26</name>
<cmt>v</cmt>
<desc>Guirsch Sentier n°26 Rue de la Rausch</desc>
<link href="https://chemins.be/guirsch/sentier/26"/><trkseg>
<trkpt lat="49.721505" lon="5.853996"><time>2026-05-03T08:47:10Z</time></trkpt>
<trkpt lat="49.721128" lon="5.854256"><time>2026-05-03T08:57:10Z</time></trkpt>
<trkpt lat="49.720699" lon="5.854361"><time>2026-05-03T09:07:10Z</time></trkpt>
</trkseg></trk>
<trk>
<name>xaogg26</name>
<cmt>r</cmt>
<desc>Guirsch Sentier n°26 Rue de la Rausch</desc>
<link href="https://chemins.be/guirsch/sentier/26"/><trkseg>
<trkpt lat="49.720699" lon="5.854361"><time>2026-05-03T09:07:10Z</time></trkpt>
<trkpt lat="49.720188" lon="5.853476"><time>2026-05-03T09:17:10Z</time></trkpt>
<trkpt lat="49.719314" lon="5.854125"><time>2026-05-03T09:27:10Z</time></trkpt>
<trkpt lat="49.718939" lon="5.853964"><time>2026-05-03T09:37:10Z</time></trkpt>
<trkpt lat="49.718660" lon="5.853546"><time>2026-05-03T09:47:10Z</time></trkpt>
</trkseg></trk>
<trk>
<name>xaogg26</name>
<cmt>v</cmt>
<desc>Guirsch Sentier n°26 Rue de la Rausch</desc>
<link href="https://chemins.be/guirsch/sentier/26"/><trkseg>
<trkpt lat="49.718660" lon="5.853546"><time>2026-05-03T09:47:10Z</time></trkpt>
<trkpt lat="49.714487" lon="5.858180"><time>2026-05-03T09:57:10Z</time></trkpt>
<trkpt lat="49.712672" lon="5.860436"><time>2026-05-03T10:07:10Z</time></trkpt>
</trkseg></trk>
<trk>
<name>xaogg26</name>
<cmt>q</cmt>
<desc>Guirsch Sentier n°26 Rue de la Rausch</desc>
<link href="https://chemins.be/guirsch/sentier/26"/><trkseg>
<trkpt lat="49.712672" lon="5.860436"><time>2026-05-03T10:07:10Z</time></trkpt>
<trkpt lat="49.712488" lon="5.860434"><time>2026-05-03T10:17:10Z</time></trkpt>
<trkpt lat="49.712374" lon="5.860203"><time>2026-05-03T10:27:10Z</time></trkpt>
</trkseg></trk>
<trk>
<name>xaogg26</name>
<cmt>v</cmt>
<desc>Guirsch Sentier n°26 Rue de la Rausch</desc>
<link href="https://chemins.be/guirsch/sentier/26"/><trkseg>
<trkpt lat="49.712374" lon="5.860203"><time>2026-05-03T10:27:10Z</time></trkpt>
<trkpt lat="49.711649" lon="5.860208"><time>2026-05-03T10:37:10Z</time></trkpt>
<trkpt lat="49.710755" lon="5.861045"><time>2026-05-03T10:47:10Z</time></trkpt>
<trkpt lat="49.710281" lon="5.861578"><time>2026-05-03T10:57:10Z</time></trkpt>
</trkseg></trk>
<trk>
<name>xaogg26</name>
<cmt>r</cmt>
<desc>Guirsch Sentier n°26 Rue de la Rausch</desc>
<link href="https://chemins.be/guirsch/sentier/26"/><trkseg>
<trkpt lat="49.710281" lon="5.861578"><time>2026-05-03T10:57:10Z</time></trkpt>
<trkpt lat="49.709683" lon="5.862141"><time>2026-05-03T11:07:10Z</time></trkpt>
<trkpt lat="49.709860" lon="5.862569"><time>2026-05-03T11:17:10Z</time></trkpt>
<trkpt lat="49.709860" lon="5.862772"><time>2026-05-03T11:27:10Z</time></trkpt>
<trkpt lat="49.709714" lon="5.863341"><time>2026-05-03T11:37:10Z</time></trkpt>
</trkseg></trk>
<trk>
<name>xaogg26</name>
<cmt>v</cmt>
<desc>Guirsch Sentier n°26 Rue de la Rausch</desc>
<link href="https://chemins.be/guirsch/sentier/26"/><trkseg>
<trkpt lat="49.709714" lon="5.863341"><time>2026-05-03T11:37:10Z</time></trkpt>
<trkpt lat="49.709583" lon="5.863365"><time>2026-05-03T11:47:10Z</time></trkpt>
<trkpt lat="49.709382" lon="5.863529"><time>2026-05-03T11:57:10Z</time></trkpt>
</trkseg></trk>
<trk>
<name>xaogg26</name>
<cmt>q</cmt>
<desc>Guirsch Sentier n°26 Rue de la Rausch</desc>
<link href="https://chemins.be/guirsch/sentier/26"/><trkseg>
<trkpt lat="49.709382" lon="5.863529"><time>2026-05-03T11:57:10Z</time></trkpt>
<trkpt lat="49.708049" lon="5.866356"><time>2026-05-03T12:07:10Z</time></trkpt>
<trkpt lat="49.707487" lon="5.866753"><time>2026-05-03T12:17:10Z</time></trkpt>
<trkpt lat="49.706682" lon="5.866249"><time>2026-05-03T12:27:10Z</time></trkpt>
<trkpt lat="49.705426" lon="5.867590"><time>2026-05-03T12:37:10Z</time></trkpt>
<trkpt lat="49.704077" lon="5.868502"><time>2026-05-03T12:47:10Z</time></trkpt>
<trkpt lat="49.702287" lon="5.869274"><time>2026-05-03T12:57:10Z</time></trkpt>
<trkpt lat="49.698317" lon="5.869489"><time>2026-05-03T13:07:10Z</time></trkpt>
<trkpt lat="49.696027" lon="5.870025"><time>2026-05-03T13:17:10Z</time></trkpt>
</trkseg>
</trk>
</gpx>